Time;durP1;ratioP1;P1;durP2;ratioP2;P2;SDS_P1;SDS_P2;PMS_P1;PMS_P2;Temp;Humidity;BMP_temperature;BMP_pressure;BME280_temperature;BME280_humidity;BME280_pressure;Samples;Min_cycle;Max_cycle;Signal;HPM_P1;HPM_P2
2022/04/25 00:00:59;;;;;;;11.50;6.63;;;4.00;99.90;;;;;;5036787;28;20065;-68
2022/04/25 00:03:26;;;;;;;12.10;7.93;;;4.00;99.90;;;;;;5032919;28;20120;-68
2022/04/25 00:05:53;;;;;;;13.48;7.13;;;4.00;99.90;;;;;;5030951;28;20111;-64
2022/04/25 00:08:20;;;;;;;10.07;5.95;;;4.00;99.90;;;;;;5022929;28;20133;-69
2022/04/25 00:10:47;;;;;;;9.50;6.80;;;4.00;99.90;;;;;;5027346;28;20494;-67
2022/04/25 00:13:14;;;;;;;9.38;6.90;;;4.00;99.90;;;;;;5037454;28;20463;-65
2022/04/25 00:15:42;;;;;;;13.43;6.32;;;3.90;99.90;;;;;;5030747;28;20077;-69
2022/04/25 00:18:09;;;;;;;13.52;7.15;;;4.00;99.90;;;;;;5022833;28;20952;-66
2022/04/25 00:20:36;;;;;;;9.63;6.75;;;4.00;99.90;;;;;;5049831;28;20047;-65
2022/04/25 00:23:06;;;;;;;7.38;5.82;;;3.90;99.90;;;;;;5033378;28;20454;-66
2022/04/25 00:25:35;;;;;;;12.23;6.35;;;3.90;99.90;;;;;;5039431;28;20705;-64
2022/04/25 00:28:04;;;;;;;10.25;6.72;;;3.90;99.90;;;;;;5040505;28;20467;-65
2022/04/25 00:30:31;;;;;;;10.50;6.05;;;3.90;99.90;;;;;;5041858;28;20164;-65
2022/04/25 00:32:59;;;;;;;9.85;6.80;;;3.90;99.90;;;;;;5044027;28;20452;-64
2022/04/25 00:35:27;;;;;;;12.00;6.28;;;3.90;99.90;;;;;;5037758;28;20132;-66
2022/04/25 00:37:55;;;;;;;8.07;5.93;;;3.90;99.90;;;;;;5029073;28;20140;-64
2022/04/25 00:40:23;;;;;;;9.05;5.60;;;3.80;99.90;;;;;;5034345;28;20234;-65
2022/04/25 00:42:51;;;;;;;7.28;5.88;;;3.80;99.90;;;;;;5038508;28;20053;-64
2022/04/25 00:45:19;;;;;;;10.95;5.72;;;3.80;99.90;;;;;;5035450;28;20135;-64
2022/04/25 00:47:46;;;;;;;7.30;6.03;;;3.90;99.90;;;;;;5033986;28;20049;-64
2022/04/25 00:50:14;;;;;;;13.57;7.53;;;3.90;99.90;;;;;;5041459;28;20427;-70
2022/04/25 00:52:42;;;;;;;10.40;6.45;;;3.90;99.90;;;;;;5033730;28;20073;-64
2022/04/25 00:55:11;;;;;;;11.45;5.82;;;3.90;99.90;;;;;;5037675;28;20057;-67
2022/04/25 00:57:38;;;;;;;9.73;6.63;;;3.90;99.90;;;;;;5023258;28;20387;-66
2022/04/25 01:00:07;;;;;;;10.55;6.70;;;3.90;99.90;;;;;;5037120;28;20137;-65
2022/04/25 01:02:34;;;;;;;8.35;6.22;;;3.90;99.90;;;;;;5032220;28;20053;-65
2022/04/25 01:05:04;;;;;;;11.77;7.07;;;3.80;99.90;;;;;;5031858;28;20040;-63
2022/04/25 01:07:34;;;;;;;10.77;6.53;;;3.80;99.90;;;;;;5024683;28;20065;-67
2022/04/25 01:10:02;;;;;;;7.90;6.18;;;3.80;99.90;;;;;;5026167;28;20087;-67
2022/04/25 01:12:29;;;;;;;8.68;5.10;;;3.80;99.90;;;;;;5032424;28;20429;-68
2022/04/25 01:15:01;;;;;;;9.70;5.82;;;3.80;99.90;;;;;;5027158;28;20141;-67
2022/04/25 01:17:28;;;;;;;9.13;6.07;;;3.80;99.90;;;;;;5037315;28;20075;-64
2022/04/25 01:19:55;;;;;;;8.00;5.47;;;3.80;99.90;;;;;;5033545;28;20037;-64
2022/04/25 01:22:32;;;;;;;12.45;6.28;;;3.80;99.90;;;;;;5036864;28;20044;-65
2022/04/25 01:27:44;;;;;;;12.15;5.90;;;3.80;99.90;;;;;;5040164;28;20107;-64
2022/04/25 01:30:11;;;;;;;7.80;5.40;;;3.80;99.90;;;;;;5032081;28;20128;-67
2022/04/25 01:32:38;;;;;;;7.63;6.10;;;3.80;99.90;;;;;;5037707;28;20148;-64
2022/04/25 01:35:06;;;;;;;11.73;5.70;;;3.80;99.90;;;;;;5032079;28;20128;-64
2022/04/25 01:37:33;;;;;;;14.77;6.20;;;3.90;99.90;;;;;;5044337;28;20042;-64
2022/04/25 01:40:00;;;;;;;7.18;5.05;;;3.80;99.90;;;;;;5024022;28;20470;-63
2022/04/25 01:42:27;;;;;;;7.43;4.80;;;3.80;99.90;;;;;;5054435;28;20578;-64
2022/04/25 01:44:54;;;;;;;7.45;5.13;;;3.80;99.90;;;;;;5035904;28;20456;-64
2022/04/25 01:47:21;;;;;;;6.57;5.10;;;3.80;99.90;;;;;;5035082;28;20128;-67
2022/04/25 01:49:48;;;;;;;6.30;5.55;;;3.80;99.90;;;;;;5027284;28;20809;-65
2022/04/25 01:52:18;;;;;;;15.25;6.45;;;3.80;99.90;;;;;;5033781;28;20049;-63
2022/04/25 01:54:45;;;;;;;10.70;5.43;;;3.80;99.90;;;;;;5033599;28;20126;-67
2022/04/25 01:57:12;;;;;;;10.55;7.25;;;3.80;99.90;;;;;;5025799;28;20164;-64
2022/04/25 01:59:39;;;;;;;11.05;5.40;;;3.70;99.90;;;;;;5023697;28;20052;-68
2022/04/25 02:02:07;;;;;;;11.75;6.32;;;3.70;99.90;;;;;;5021093;28;20490;-64
2022/04/25 02:04:34;;;;;;;8.40;5.88;;;3.70;99.90;;;;;;5026111;28;20041;-67
2022/04/25 02:07:01;;;;;;;8.23;6.15;;;3.70;99.90;;;;;;5017847;28;20139;-67
2022/04/25 02:09:34;;;;;;;10.85;5.63;;;3.70;99.90;;;;;;5036199;28;20061;-65
2022/04/25 02:12:01;;;;;;;10.32;5.40;;;3.80;99.90;;;;;;5033463;28;20088;-66
2022/04/25 02:14:31;;;;;;;8.68;5.50;;;3.80;99.90;;;;;;5030059;28;20780;-65
2022/04/25 02:17:00;;;;;;;8.25;5.35;;;3.70;99.90;;;;;;5025387;28;20045;-64
2022/04/25 02:19:28;;;;;;;7.45;4.97;;;3.70;99.90;;;;;;5025006;28;20076;-67
2022/04/25 02:21:56;;;;;;;13.55;5.55;;;3.70;99.90;;;;;;5023640;28;20536;-68
2022/04/25 02:24:23;;;;;;;5.85;4.18;;;3.70;99.90;;;;;;5024038;28;20066;-65
2022/04/25 02:26:50;;;;;;;9.55;5.68;;;3.70;99.90;;;;;;5030468;28;20045;-66
2022/04/25 02:29:22;;;;;;;7.70;5.63;;;3.70;99.90;;;;;;5024202;28;20041;-65
2022/04/25 02:31:49;;;;;;;7.15;5.32;;;3.70;99.90;;;;;;5017067;28;20157;-64
2022/04/25 02:34:16;;;;;;;9.30;4.20;;;3.60;99.90;;;;;;5016121;28;20116;-66
2022/04/25 02:36:43;;;;;;;8.98;6.38;;;3.70;99.90;;;;;;5000494;28;20042;-63
2022/04/25 02:39:10;;;;;;;5.00;4.18;;;3.60;99.90;;;;;;5010875;28;20050;-64
2022/04/25 02:41:37;;;;;;;7.03;4.97;;;3.70;99.90;;;;;;5013817;28;20183;-63
2022/04/25 02:44:04;;;;;;;6.55;5.03;;;3.70;99.90;;;;;;5016984;28;20121;-66
2022/04/25 02:46:31;;;;;;;10.18;4.97;;;3.70;99.90;;;;;;5020309;28;20692;-67
2022/04/25 02:48:58;;;;;;;8.55;4.68;;;3.70;99.90;;;;;;5017981;28;20096;-63
2022/04/25 02:51:25;;;;;;;10.38;4.53;;;3.70;99.90;;;;;;5014810;28;20042;-64
2022/04/25 02:53:51;;;;;;;12.13;4.82;;;3.70;99.90;;;;;;5022716;28;20136;-63
2022/04/25 02:56:18;;;;;;;8.63;5.75;;;3.70;99.90;;;;;;5013105;28;20084;-66
2022/04/25 02:58:45;;;;;;;5.75;4.80;;;3.70;99.90;;;;;;5017423;28;20515;-67
2022/04/25 03:01:12;;;;;;;6.60;4.45;;;3.80;99.90;;;;;;5034834;28;20049;-64
2022/04/25 03:03:39;;;;;;;8.38;5.57;;;3.70;99.90;;;;;;5023035;28;20069;-65
2022/04/25 03:06:09;;;;;;;7.40;5.95;;;3.70;99.90;;;;;;5003252;28;20157;-64
2022/04/25 03:08:38;;;;;;;7.60;5.63;;;3.80;99.90;;;;;;5009479;28;20127;-64
2022/04/25 03:11:09;;;;;;;7.90;6.03;;;3.80;99.90;;;;;;5015363;28;20172;-66
2022/04/25 03:13:38;;;;;;;9.57;6.80;;;3.80;99.90;;;;;;5018763;28;20080;-67
2022/04/25 03:16:05;;;;;;;7.28;5.43;;;3.80;99.90;;;;;;5016902;28;20073;-65
2022/04/25 03:18:33;;;;;;;10.48;6.00;;;3.80;99.90;;;;;;5020723;28;20148;-63
2022/04/25 03:21:00;;;;;;;7.18;5.13;;;3.80;99.90;;;;;;5020481;28;20064;-64
2022/04/25 03:23:27;;;;;;;10.65;6.10;;;3.80;99.90;;;;;;5020401;28;20038;-63
2022/04/25 03:25:54;;;;;;;5.60;4.70;;;3.80;99.90;;;;;;5016260;28;20053;-68
2022/04/25 03:28:22;;;;;;;6.15;4.82;;;3.80;99.90;;;;;;5014934;28;20480;-64
2022/04/25 03:30:48;;;;;;;12.05;5.53;;;3.90;99.90;;;;;;5022380;28;20151;-64
2022/04/25 03:33:15;;;;;;;9.30;5.13;;;3.90;99.90;;;;;;5036864;28;20051;-68
2022/04/25 03:35:47;;;;;;;6.15;4.97;;;3.90;99.90;;;;;;5040274;28;20041;-63
2022/04/25 03:38:17;;;;;;;6.30;5.03;;;3.90;99.90;;;;;;5037609;28;20033;-64
2022/04/25 03:40:45;;;;;;;7.28;5.15;;;3.90;99.90;;;;;;5040004;28;20129;-65
2022/04/25 03:43:12;;;;;;;6.55;5.18;;;3.90;99.90;;;;;;5043136;28;20749;-64
2022/04/25 03:45:41;;;;;;;6.95;4.57;;;4.00;99.90;;;;;;5032238;28;20053;-67
2022/04/25 03:48:08;;;;;;;6.75;4.70;;;4.00;99.90;;;;;;5043354;28;20122;-64
2022/04/25 03:50:35;;;;;;;12.20;4.90;;;4.00;99.90;;;;;;5044181;28;20041;-63
2022/04/25 03:53:08;;;;;;;5.75;4.65;;;4.00;99.90;;;;;;5032925;28;20434;-66
2022/04/25 03:58:21;;;;;;;6.15;5.40;;;4.00;99.90;;;;;;5039847;28;20049;-67
2022/04/25 04:00:49;;;;;;;5.70;4.75;;;4.00;99.90;;;;;;5039960;28;20047;-66
2022/04/25 04:03:18;;;;;;;6.35;4.63;;;4.10;99.90;;;;;;5032255;28;20137;-67
2022/04/25 04:05:46;;;;;;;8.73;6.07;;;4.10;99.90;;;;;;5027171;28;20103;-65
2022/04/25 04:08:13;;;;;;;8.10;4.75;;;4.10;99.90;;;;;;5025990;28;20446;-64
2022/04/25 04:10:41;;;;;;;6.85;4.43;;;4.10;99.90;;;;;;5029991;28;20069;-63
2022/04/25 04:13:08;;;;;;;10.15;8.20;;;4.10;99.90;;;;;;5034806;28;20115;-65
2022/04/25 04:15:36;;;;;;;5.18;3.90;;;4.10;99.90;;;;;;5032007;28;20111;-63
2022/04/25 04:18:06;;;;;;;5.60;4.25;;;4.10;99.90;;;;;;5023074;28;20141;-67
2022/04/25 04:20:33;;;;;;;6.50;4.13;;;4.10;99.90;;;;;;5028190;28;20052;-66
2022/04/25 04:23:00;;;;;;;12.73;5.25;;;4.10;99.90;;;;;;5038805;28;20044;-65
2022/04/25 04:25:27;;;;;;;7.78;4.10;;;4.20;99.90;;;;;;5026930;28;20535;-65
2022/04/25 04:27:54;;;;;;;5.40;4.18;;;4.20;99.90;;;;;;5043789;28;20147;-65
2022/04/25 04:30:21;;;;;;;6.82;4.47;;;4.20;99.90;;;;;;5024852;28;20068;-66
2022/04/25 04:32:48;;;;;;;7.05;4.32;;;4.20;99.90;;;;;;5031959;28;20045;-64
2022/04/25 04:36:17;;;;;;;8.43;4.93;;;4.20;99.90;;;;;;5033137;28;20047;-64
2022/04/25 04:38:05;;;;;;;10.48;4.50;;;4.20;99.90;;;;;;5039186;28;20045;-64
2022/04/25 04:40:34;;;;;;;5.43;4.68;;;4.20;99.90;;;;;;5035292;28;20115;-67
2022/04/25 04:43:01;;;;;;;8.32;3.30;;;4.30;99.90;;;;;;5031778;28;20757;-63
2022/04/25 04:45:29;;;;;;;5.60;3.67;;;4.30;99.90;;;;;;5031656;28;20140;-63
2022/04/25 04:47:56;;;;;;;7.15;4.07;;;4.30;99.90;;;;;;5034500;28;20122;-65
2022/04/25 04:50:23;;;;;;;13.52;4.28;;;4.30;99.90;;;;;;5027716;28;20057;-64
2022/04/25 04:52:52;;;;;;;5.35;3.38;;;4.30;99.90;;;;;;5034565;28;20071;-65
2022/04/25 04:55:19;;;;;;;15.75;4.57;;;4.30;99.90;;;;;;5031803;28;20053;-66
2022/04/25 04:57:47;;;;;;;8.02;4.18;;;4.30;99.90;;;;;;5029145;28;20045;-65
2022/04/25 05:00:16;;;;;;;5.93;3.88;;;4.30;99.90;;;;;;5027560;28;20063;-65
2022/04/25 05:02:44;;;;;;;5.43;3.78;;;4.30;99.90;;;;;;5028226;28;20037;-67
2022/04/25 05:05:12;;;;;;;7.50;3.60;;;4.40;99.90;;;;;;5023069;28;20056;-68
2022/04/25 05:07:40;;;;;;;7.32;4.10;;;4.40;99.90;;;;;;5025733;28;20041;-67
2022/04/25 05:10:08;;;;;;;4.22;3.47;;;4.40;99.90;;;;;;5024993;28;20048;-71
2022/04/25 05:12:44;;;;;;;5.20;4.70;;;4.40;99.90;;;;;;5031049;28;20136;-64
2022/04/25 05:15:13;;;;;;;5.85;3.05;;;4.40;99.90;;;;;;5035039;28;20467;-69
2022/04/25 05:17:48;;;;;;;6.38;3.47;;;4.50;99.90;;;;;;5034988;28;20128;-67
2022/04/25 05:20:15;;;;;;;10.05;4.25;;;4.50;99.90;;;;;;5047405;28;20050;-68
2022/04/25 05:22:47;;;;;;;3.95;3.40;;;4.50;99.90;;;;;;5024014;28;20063;-69
2022/04/25 05:25:16;;;;;;;5.57;3.22;;;4.50;99.90;;;;;;5020623;28;20046;-64
2022/04/25 05:27:44;;;;;;;4.35;3.78;;;4.50;99.90;;;;;;5050762;28;20037;-64
2022/04/25 05:30:11;;;;;;;40.70;8.23;;;4.50;99.90;;;;;;5030392;28;20061;-67
2022/04/25 05:32:48;;;;;;;11.90;4.35;;;4.50;99.90;;;;;;5038267;28;20118;-64
2022/04/25 05:35:17;;;;;;;17.55;5.72;;;4.50;99.90;;;;;;5032502;28;20639;-67
2022/04/25 05:37:45;;;;;;;6.30;3.70;;;4.40;99.90;;;;;;5030816;28;20060;-65
2022/04/25 05:40:14;;;;;;;8.77;4.13;;;4.40;99.90;;;;;;5032095;28;20033;-72
2022/04/25 05:42:41;;;;;;;8.80;3.92;;;4.40;99.90;;;;;;5034217;28;20131;-66
2022/04/25 05:45:10;;;;;;;9.18;3.65;;;4.40;99.90;;;;;;5032287;28;20103;-64
2022/04/25 05:47:37;;;;;;;11.10;3.85;;;4.40;99.90;;;;;;5029603;28;20124;-65
2022/04/25 05:52:52;;;;;;;6.75;3.28;;;4.50;99.90;;;;;;5029059;28;20050;-70
2022/04/25 05:55:19;;;;;;;5.75;3.40;;;4.50;99.90;;;;;;5028882;28;20051;-72
2022/04/25 05:57:46;;;;;;;6.18;3.20;;;4.50;99.90;;;;;;5037117;28;20139;-66
2022/04/25 06:00:14;;;;;;;8.70;3.75;;;4.60;99.90;;;;;;5034603;28;20141;-70
2022/04/25 06:02:43;;;;;;;5.22;3.65;;;4.60;99.90;;;;;;5031699;28;20045;-68
2022/04/25 06:05:11;;;;;;;5.43;3.55;;;4.60;99.90;;;;;;5028248;28;20055;-66
2022/04/25 06:07:43;;;;;;;5.95;3.50;;;4.60;99.90;;;;;;5033143;28;20489;-65
2022/04/25 06:10:11;;;;;;;5.78;2.97;;;4.70;99.90;;;;;;5033577;28;20056;-66
2022/04/25 06:12:44;;;;;;;5.25;3.47;;;4.70;99.90;;;;;;5032368;28;20471;-64
2022/04/25 06:15:11;;;;;;;6.15;2.85;;;4.70;99.90;;;;;;5033739;28;20226;-68
2022/04/25 06:17:38;;;;;;;6.68;3.47;;;4.70;99.90;;;;;;5040754;28;20045;-66
2022/04/25 06:20:06;;;;;;;7.45;3.78;;;4.70;99.90;;;;;;5039226;28;20139;-68
2022/04/25 06:22:33;;;;;;;2.85;2.55;;;4.70;99.90;;;;;;5041581;28;20139;-69
2022/04/25 06:25:00;;;;;;;9.15;3.30;;;4.70;99.90;;;;;;5030198;28;20650;-64
2022/04/25 06:27:27;;;;;;;4.68;3.45;;;4.70;99.90;;;;;;5032513;28;20087;-65
2022/04/25 06:29:54;;;;;;;3.42;3.05;;;4.80;99.90;;;;;;5036582;28;20127;-70
2022/04/25 06:32:27;;;;;;;6.55;3.45;;;4.80;99.90;;;;;;5036462;28;20103;-64
2022/04/25 06:34:53;;;;;;;5.85;3.97;;;4.90;99.90;;;;;;5045313;28;20036;-63
2022/04/25 06:37:20;;;;;;;3.55;3.00;;;4.90;99.90;;;;;;5042069;28;20132;-66
2022/04/25 06:39:47;;;;;;;6.07;5.25;;;5.00;99.90;;;;;;5036427;28;20049;-68
2022/04/25 06:42:16;;;;;;;3.67;3.35;;;4.90;99.90;;;;;;5031702;28;20040;-66
2022/04/25 06:44:43;;;;;;;8.98;3.75;;;5.00;99.90;;;;;;5034962;28;20456;-70
2022/04/25 06:47:10;;;;;;;4.20;3.22;;;5.00;99.90;;;;;;5035915;28;20140;-64
2022/04/25 06:49:38;;;;;;;9.63;3.38;;;5.00;99.90;;;;;;5037769;28;20044;-63
2022/04/25 06:52:06;;;;;;;4.10;3.50;;;5.00;99.90;;;;;;5040298;28;20052;-69
2022/04/25 06:54:35;;;;;;;6.18;3.08;;;5.00;99.90;;;;;;5042965;28;20124;-67
2022/04/25 06:57:06;;;;;;;3.15;2.78;;;5.00;99.90;;;;;;5043589;28;20059;-67
2022/04/25 06:59:33;;;;;;;6.13;2.95;;;5.00;99.90;;;;;;5030281;28;20395;-63
2022/04/25 07:02:00;;;;;;;4.63;3.55;;;5.00;99.90;;;;;;5036623;28;20110;-64
2022/04/25 07:04:28;;;;;;;4.85;3.38;;;5.00;99.90;;;;;;5043453;28;20139;-65
2022/04/25 07:06:54;;;;;;;5.93;3.20;;;5.00;99.90;;;;;;5044346;28;20207;-64
2022/04/25 07:09:21;;;;;;;4.97;3.97;;;5.10;99.90;;;;;;5042204;28;20049;-65
2022/04/25 07:11:49;;;;;;;11.10;4.05;;;5.10;99.90;;;;;;5045442;28;20044;-66
2022/04/25 07:14:17;;;;;;;9.35;4.57;;;5.00;99.90;;;;;;5038075;28;20048;-68
2022/04/25 07:16:48;;;;;;;5.18;4.10;;;5.10;99.90;;;;;;5042483;28;20044;-63
2022/04/25 07:19:21;;;;;;;7.20;3.33;;;5.10;99.90;;;;;;5039757;28;20045;-71
2022/04/25 07:30:05;;;;;;;11.70;3.92;;;5.10;99.90;;;;;;5039177;28;20045;-64
2022/04/25 07:32:39;;;;;;;5.97;4.05;;;5.10;99.90;;;;;;5040162;28;20126;-64
2022/04/25 07:35:07;;;;;;;7.30;4.07;;;5.20;99.90;;;;;;5040377;28;20041;-71
2022/04/25 07:37:34;;;;;;;4.88;2.92;;;5.30;99.90;;;;;;5038330;28;20044;-68
2022/04/25 07:40:02;;;;;;;6.07;2.83;;;5.20;99.90;;;;;;5036902;28;20458;-68
2022/04/25 07:42:31;;;;;;;7.25;3.88;;;5.20;99.90;;;;;;5036090;28;20448;-71
2022/04/25 07:44:59;;;;;;;8.60;3.85;;;5.20;99.90;;;;;;5035575;28;20055;-64
2022/04/25 07:47:26;;;;;;;9.88;3.85;;;5.20;99.90;;;;;;5037151;28;20098;-71
2022/04/25 07:49:53;;;;;;;7.32;3.60;;;5.30;99.90;;;;;;5039531;28;20098;-70
2022/04/25 07:52:20;;;;;;;9.75;3.30;;;5.40;99.90;;;;;;5040649;28;20049;-68
2022/04/25 07:54:47;;;;;;;11.02;3.60;;;5.30;99.90;;;;;;5042350;28;20071;-63
2022/04/25 07:57:14;;;;;;;3.53;3.15;;;5.40;99.90;;;;;;5038562;28;20042;-68
2022/04/25 07:59:40;;;;;;;4.15;2.97;;;5.40;99.90;;;;;;5041633;28;20128;-63
2022/04/25 08:02:09;;;;;;;4.65;3.58;;;5.30;99.90;;;;;;5035333;28;20067;-65
2022/04/25 08:04:37;;;;;;;6.82;3.05;;;5.20;99.90;;;;;;5031557;28;20052;-69
2022/04/25 08:07:04;;;;;;;4.40;3.13;;;5.40;99.90;;;;;;5038586;28;20048;-67
2022/04/25 08:09:31;;;;;;;9.82;2.60;;;5.40;99.90;;;;;;5035735;28;20871;-64
2022/04/25 08:20:15;;;;;;;3.70;3.13;;;5.40;99.90;;;;;;5033987;28;20141;-65
2022/04/25 08:22:42;;;;;;;5.47;2.90;;;5.50;99.90;;;;;;5045149;28;20037;-64
2022/04/25 08:25:10;;;;;;;6.28;3.13;;;5.50;99.90;;;;;;5030534;28;20137;-67
2022/04/25 08:27:40;;;;;;;10.35;3.83;;;5.60;99.90;;;;;;5032463;28;20041;-73
2022/04/25 08:30:08;;;;;;;7.55;2.67;;;5.70;99.90;;;;;;5029059;28;20048;-64
2022/04/25 08:32:35;;;;;;;7.57;3.17;;;5.70;99.90;;;;;;5031739;28;20425;-67
2022/04/25 08:35:02;;;;;;;8.10;3.70;;;5.70;99.90;;;;;;5031850;28;20049;-71
2022/04/25 08:37:29;;;;;;;7.30;2.90;;;5.60;99.90;;;;;;5036218;28;20044;-69
2022/04/25 08:40:04;;;;;;;9.07;2.72;;;5.70;99.90;;;;;;5037999;28;20486;-66
2022/04/25 08:42:31;;;;;;;6.20;3.20;;;5.80;99.90;;;;;;5028868;28;20037;-64
2022/04/25 08:45:14;;;;;;;6.38;2.72;;;5.80;99.90;;;;;;5034533;28;20048;-67
2022/04/25 08:47:54;;;;;;;5.25;2.72;;;5.80;99.90;;;;;;5033453;28;20040;-70
2022/04/25 08:50:22;;;;;;;7.22;2.33;;;5.90;99.90;;;;;;5039167;28;20048;-64
2022/04/25 08:52:49;;;;;;;5.50;3.08;;;5.90;99.90;;;;;;5038051;28;20037;-65
2022/04/25 08:55:16;;;;;;;4.82;3.05;;;5.80;99.90;;;;;;5038243;28;20110;-65
2022/04/25 08:57:45;;;;;;;4.00;2.22;;;5.90;99.90;;;;;;5041235;28;20052;-63
2022/04/25 09:00:13;;;;;;;8.05;3.35;;;5.90;99.90;;;;;;5033600;28;20064;-65
2022/04/25 09:02:44;;;;;;;8.60;2.53;;;5.90;99.90;;;;;;5037352;28;20710;-64
2022/04/25 09:05:12;;;;;;;4.07;3.17;;;6.00;99.90;;;;;;5033814;28;20060;-69
2022/04/25 09:07:41;;;;;;;5.45;3.65;;;5.90;99.90;;;;;;5036257;28;20132;-70
2022/04/25 09:10:10;;;;;;;3.90;2.30;;;6.00;99.90;;;;;;5031784;28;20520;-69
2022/04/25 09:12:42;;;;;;;4.15;2.60;;;6.00;99.90;;;;;;5036455;28;20072;-69
2022/04/25 09:15:20;;;;;;;2.92;2.33;;;6.00;99.90;;;;;;5026132;28;20379;-66
2022/04/25 09:17:54;;;;;;;2.85;2.53;;;6.10;99.90;;;;;;5025445;28;20053;-66
2022/04/25 09:20:22;;;;;;;4.73;2.20;;;6.10;99.90;;;;;;5033386;28;20044;-64
2022/04/25 09:22:49;;;;;;;7.25;2.50;;;6.20;99.90;;;;;;5035267;28;20049;-66
2022/04/25 09:25:18;;;;;;;10.90;3.28;;;6.00;99.90;;;;;;5037865;28;20068;-69
2022/04/25 09:28:14;;;;;;;4.38;2.10;;;6.20;99.90;;;;;;5043440;28;20169;-69
2022/04/25 09:31:01;;;;;;;4.55;2.75;;;6.30;99.90;;;;;;5033503;28;20126;-68
2022/04/25 09:33:29;;;;;;;4.93;2.50;;;6.30;99.90;;;;;;5035233;28;20096;-69
2022/04/25 09:35:57;;;;;;;7.90;2.47;;;6.40;99.90;;;;;;5030667;28;20137;-66
2022/04/25 09:38:33;;;;;;;5.55;2.53;;;6.20;99.90;;;;;;5030548;28;20052;-63
2022/04/25 09:41:02;;;;;;;8.85;3.28;;;5.90;99.90;;;;;;5027560;28;20088;-72
2022/04/25 09:43:30;;;;;;;6.15;2.60;;;5.90;99.90;;;;;;5038029;28;20389;-68
2022/04/25 09:46:03;;;;;;;5.15;3.05;;;6.10;99.90;;;;;;5031947;28;20055;-68
2022/04/25 09:48:30;;;;;;;7.80;3.83;;;6.10;99.90;;;;;;5028213;28;20036;-64
2022/04/25 09:51:05;;;;;;;4.88;2.22;;;6.20;99.90;;;;;;5031011;28;20412;-71
2022/04/25 09:53:52;;;;;;;4.93;2.70;;;6.20;99.90;;;;;;5027240;28;20687;-64
2022/04/25 09:56:20;;;;;;;2.50;2.25;;;6.30;99.90;;;;;;5035167;28;20728;-66
2022/04/25 09:59:08;;;;;;;4.60;2.40;;;6.40;99.90;;;;;;5035998;28;20136;-64
2022/04/25 10:01:37;;;;;;;7.22;3.03;;;6.20;99.90;;;;;;5021411;28;20045;-69
2022/04/25 10:04:25;;;;;;;5.25;2.58;;;6.00;99.90;;;;;;5017798;28;20115;-67
2022/04/25 10:06:54;;;;;;;2.80;2.35;;;5.90;99.90;;;;;;5020746;28;20053;-68
2022/04/25 10:09:24;;;;;;;5.32;2.30;;;5.80;99.90;;;;;;5039390;28;20039;-64
2022/04/25 10:11:57;;;;;;;6.95;2.63;;;5.90;99.90;;;;;;5039080;28;20045;-64
2022/04/25 10:14:25;;;;;;;5.50;3.10;;;5.90;99.90;;;;;;5029864;28;20413;-67
2022/04/25 10:16:56;;;;;;;6.68;2.78;;;6.10;99.90;;;;;;5034850;28;20064;-68
2022/04/25 10:19:27;;;;;;;5.45;3.22;;;6.10;99.90;;;;;;5031467;28;20684;-64
2022/04/25 10:21:56;;;;;;;4.75;3.40;;;6.20;99.90;;;;;;5035869;28;20048;-67
2022/04/25 10:24:24;;;;;;;7.75;5.05;;;6.10;99.90;;;;;;5031948;28;20080;-69
2022/04/25 10:26:52;;;;;;;3.30;3.00;;;6.30;99.90;;;;;;5032771;28;20072;-64
2022/04/25 10:29:26;;;;;;;4.22;3.75;;;6.50;99.90;;;;;;5034220;28;20037;-67
2022/04/25 10:31:59;;;;;;;3.05;2.70;;;6.70;99.90;;;;;;5033150;28;20137;-64
2022/04/25 10:34:51;;;;;;;5.30;3.33;;;6.80;99.90;;;;;;5027706;28;20045;-66
2022/04/25 10:37:43;;;;;;;6.47;2.97;;;6.50;99.90;;;;;;5036150;28;20061;-66
2022/04/25 10:40:14;;;;;;;3.47;2.67;;;6.30;99.90;;;;;;5037103;28;20048;-70
2022/04/25 10:45:56;;;;;;;5.57;3.03;;;6.20;99.90;;;;;;5030231;28;20107;-67
2022/04/25 10:48:23;;;;;;;5.15;2.65;;;6.40;99.90;;;;;;5031802;28;20158;-65
2022/04/25 10:51:10;;;;;;;4.75;2.60;;;6.60;99.90;;;;;;5033918;28;20383;-68
2022/04/25 10:54:03;;;;;;;4.15;2.25;;;6.70;99.90;;;;;;5027855;28;20048;-69
2022/04/25 10:56:31;;;;;;;3.88;2.65;;;6.80;99.90;;;;;;5026644;28;20037;-66
2022/04/25 10:59:24;;;;;;;6.70;2.88;;;6.90;99.90;;;;;;5033678;28;20041;-68
2022/04/25 11:01:52;;;;;;;6.28;3.58;;;6.90;99.90;;;;;;5037853;28;20558;-64
2022/04/25 11:04:21;;;;;;;11.30;3.67;;;7.00;99.90;;;;;;5037708;28;20037;-69
2022/04/25 11:06:48;;;;;;;4.13;2.90;;;7.00;99.90;;;;;;5034879;28;20694;-66
2022/04/25 11:09:44;;;;;;;5.88;2.75;;;7.00;99.90;;;;;;5038018;28;20132;-66
2022/04/25 11:12:11;;;;;;;3.13;2.33;;;7.00;99.90;;;;;;5031253;28;20067;-65
2022/04/25 11:14:54;;;;;;;5.13;4.00;;;7.10;99.90;;;;;;5034291;28;20053;-68
2022/04/25 11:17:22;;;;;;;2.78;2.53;;;7.10;99.90;;;;;;5041475;28;20140;-64
2022/04/25 11:19:53;;;;;;;5.13;3.40;;;7.10;99.90;;;;;;5044631;28;20045;-64
2022/04/25 11:22:36;;;;;;;5.03;3.78;;;7.10;99.90;;;;;;5039247;28;20600;-66
2022/04/25 11:25:35;;;;;;;5.07;2.55;;;7.10;99.90;;;;;;5038482;28;20387;-65
2022/04/25 11:28:10;;;;;;;5.32;2.80;;;7.20;99.90;;;;;;5027325;28;20055;-66
2022/04/25 11:30:38;;;;;;;8.45;3.95;;;7.20;99.90;;;;;;5036705;28;20692;-68
2022/04/25 11:33:08;;;;;;;2.65;2.42;;;7.30;99.90;;;;;;5027217;28;20383;-66
2022/04/25 11:35:37;;;;;;;6.60;2.58;;;7.20;99.90;;;;;;5036417;28;20102;-65
2022/04/25 11:38:04;;;;;;;2.80;2.22;;;7.20;99.90;;;;;;5037338;28;20120;-67
2022/04/25 11:40:31;;;;;;;4.65;3.83;;;6.90;99.90;;;;;;5042664;28;20108;-64
2022/04/25 11:42:59;;;;;;;4.95;2.95;;;7.00;99.90;;;;;;5026798;28;20060;-66
2022/04/25 11:45:29;;;;;;;4.35;2.90;;;6.90;99.90;;;;;;5020836;28;20776;-64
2022/04/25 11:47:57;;;;;;;10.13;3.45;;;7.00;99.90;;;;;;5038371;28;20574;-65
2022/04/25 11:50:25;;;;;;;4.80;3.22;;;7.00;99.90;;;;;;5037789;28;20123;-64
2022/04/25 11:52:57;;;;;;;4.88;3.08;;;7.00;99.90;;;;;;5039738;28;20409;-64
2022/04/25 11:55:35;;;;;;;4.60;2.63;;;6.90;99.90;;;;;;5039567;28;20087;-64
2022/04/25 11:58:03;;;;;;;3.40;2.78;;;7.10;99.90;;;;;;5038257;28;20400;-65
2022/04/25 12:00:30;;;;;;;6.10;3.15;;;7.00;99.90;;;;;;5030836;28;21720;-68
2022/04/25 12:03:01;;;;;;;7.90;3.22;;;7.10;99.90;;;;;;5036372;28;20053;-64
2022/04/25 12:05:31;;;;;;;5.80;3.30;;;7.10;99.90;;;;;;5035977;28;20064;-70
2022/04/25 12:16:18;;;;;;;4.97;2.42;;;7.40;99.90;;;;;;5029903;28;20046;-64
2022/04/25 12:18:51;;;;;;;4.40;2.67;;;7.30;99.90;;;;;;5029892;28;20045;-69
2022/04/25 12:21:20;;;;;;;5.68;3.08;;;7.20;99.90;;;;;;5038712;28;20076;-67
2022/04/25 12:23:52;;;;;;;4.32;2.80;;;7.30;99.90;;;;;;5036805;28;20055;-66
2022/04/25 12:26:24;;;;;;;3.25;2.75;;;7.20;99.90;;;;;;5036201;28;20144;-67
2022/04/25 12:29:00;;;;;;;4.53;2.70;;;7.30;99.90;;;;;;5048323;28;20124;-64
2022/04/25 12:31:28;;;;;;;2.60;2.40;;;7.30;99.90;;;;;;5030695;28;20080;-66
2022/04/25 12:33:55;;;;;;;5.00;2.78;;;7.40;99.90;;;;;;5038096;28;20128;-66
2022/04/25 12:36:27;;;;;;;3.17;2.53;;;7.40;99.90;;;;;;5038564;28;22507;-66
2022/04/25 12:39:02;;;;;;;2.92;2.63;;;7.60;99.90;;;;;;5044107;28;20041;-63
2022/04/25 12:41:34;;;;;;;4.53;2.67;;;7.70;99.90;;;;;;5032315;28;20037;-66
2022/04/25 12:44:10;;;;;;;6.05;3.60;;;7.70;99.90;;;;;;5044174;28;20041;-66
2022/04/25 12:46:43;;;;;;;3.25;2.95;;;7.80;99.90;;;;;;5031894;28;20049;-65
2022/04/25 12:49:13;;;;;;;3.67;2.38;;;8.00;99.90;;;;;;5040548;28;20135;-67
2022/04/25 12:51:45;;;;;;;2.40;2.20;;;8.30;99.90;;;;;;5043278;28;20041;-67
2022/04/25 12:54:20;;;;;;;3.78;2.40;;;8.40;99.90;;;;;;5042996;28;20515;-64
2022/04/25 12:56:49;;;;;;;5.15;2.58;;;8.40;99.90;;;;;;5042299;28;20468;-71
2022/04/25 12:59:30;;;;;;;3.70;2.55;;;8.50;99.90;;;;;;5041669;28;20052;-65
2022/04/25 13:02:04;;;;;;;4.25;3.22;;;8.50;99.90;;;;;;5039698;28;20056;-65
2022/04/25 13:04:31;;;;;;;3.05;2.15;;;8.30;99.90;;;;;;5036593;28;20098;-64
2022/04/25 13:07:02;;;;;;;4.15;2.15;;;8.40;99.90;;;;;;5027503;28;20054;-66
2022/04/25 13:09:28;;;;;;;2.85;2.28;;;8.40;99.90;;;;;;5045435;28;20136;-66
2022/04/25 13:11:55;;;;;;;4.68;2.47;;;8.50;99.90;;;;;;5039596;28;20067;-66
2022/04/25 13:14:22;;;;;;;4.68;1.92;;;8.70;99.90;;;;;;5037428;28;20055;-63
2022/04/25 13:16:49;;;;;;;2.33;2.03;;;8.70;99.90;;;;;;5037650;28;20056;-67
2022/04/25 13:19:16;;;;;;;7.50;2.78;;;8.80;99.90;;;;;;5033265;28;20053;-64
2022/04/25 13:21:43;;;;;;;3.13;2.15;;;8.70;99.90;;;;;;5034785;28;20135;-65
2022/04/25 13:24:10;;;;;;;5.65;1.90;;;8.70;99.90;;;;;;5035698;28;20133;-68
2022/04/25 13:26:37;;;;;;;2.03;1.90;;;8.80;99.90;;;;;;5033348;28;20062;-63
2022/04/25 13:29:04;;;;;;;3.97;2.67;;;8.80;99.90;;;;;;5042488;28;20063;-64
2022/04/25 13:31:31;;;;;;;3.65;2.20;;;8.90;99.90;;;;;;5037124;28;20822;-65
2022/04/25 13:33:59;;;;;;;3.38;2.10;;;8.90;99.90;;;;;;5042024;28;20803;-67
2022/04/25 13:36:26;;;;;;;3.10;2.03;;;8.60;99.90;;;;;;5039835;28;20135;-64
2022/04/25 13:38:53;;;;;;;3.60;2.50;;;8.80;99.90;;;;;;5033125;28;20033;-69
2022/04/25 13:41:20;;;;;;;3.22;1.98;;;8.90;99.90;;;;;;5039827;28;20044;-65
2022/04/25 13:43:49;;;;;;;4.20;2.95;;;9.00;99.90;;;;;;5039376;28;20607;-64